<?xml version="1.0" encoding="UTF-8" standalone="no" ?>
<gpx xmlns="http://www.topografix.com/GPX/1/1" xmlns:xsi="http://www.w3.org/2001/XMLSchema-instance" xsi:schemaLocation="http://www.topografix.com/GPX/1/1 http://www.topografix.com/GPX/1/1/gpx.xsd" version="1.1" creator="VisuGPX - https://www.visugpx.com">
  <metadata>
    <name>83 - V - Roquebrune le Muy </name>
    <desc><![CDATA[83 - V - Roquebrune - le Muy : sur la piste du menhir 
2022-04-01]]></desc>
  </metadata>
  <trk>
    <name><![CDATA[Roquebrune le muy sur la piste du menhir 2022-04-01-01]]></name>
    <trkseg>
      <trkpt lat="43.44905" lon="6.58008">
        <ele>178.2</ele>
        <time>2022-04-01T12:02:43Z</time>
      </trkpt>
      <trkpt lat="43.44905" lon="6.58008">
        <ele>178.2</ele>
        <time>2022-04-01T12:02:44Z</time>
      </trkpt>
      <trkpt lat="43.44898" lon="6.58001">
        <ele>178.8</ele>
        <time>2022-04-01T12:05:34Z</time>
      </trkpt>
      <trkpt lat="43.44891" lon="6.57991">
        <ele>179.2</ele>
        <time>2022-04-01T12:05:45Z</time>
      </trkpt>
      <trkpt lat="43.44882" lon="6.57987">
        <ele>179</ele>
        <time>2022-04-01T12:05:51Z</time>
      </trkpt>
      <trkpt lat="43.44873" lon="6.57984">
        <ele>177.9</ele>
        <time>2022-04-01T12:05:58Z</time>
      </trkpt>
      <trkpt lat="43.44864" lon="6.57985">
        <ele>176.6</ele>
        <time>2022-04-01T12:06:11Z</time>
      </trkpt>
      <trkpt lat="43.44855" lon="6.57983">
        <ele>176.7</ele>
        <time>2022-04-01T12:06:23Z</time>
      </trkpt>
      <trkpt lat="43.44848" lon="6.57974">
        <ele>174.1</ele>
        <time>2022-04-01T12:06:41Z</time>
      </trkpt>
      <trkpt lat="43.44857" lon="6.57968">
        <ele>173.2</ele>
        <time>2022-04-01T12:06:54Z</time>
      </trkpt>
      <trkpt lat="43.44865" lon="6.57963">
        <ele>172</ele>
        <time>2022-04-01T12:07:03Z</time>
      </trkpt>
      <trkpt lat="43.44866" lon="6.5795">
        <ele>171.9</ele>
        <time>2022-04-01T12:07:12Z</time>
      </trkpt>
      <trkpt lat="43.44861" lon="6.57939">
        <ele>173.3</ele>
        <time>2022-04-01T12:07:21Z</time>
      </trkpt>
      <trkpt lat="43.44856" lon="6.5793">
        <ele>172.2</ele>
        <time>2022-04-01T12:07:31Z</time>
      </trkpt>
      <trkpt lat="43.44849" lon="6.57921">
        <ele>171.6</ele>
        <time>2022-04-01T12:07:40Z</time>
      </trkpt>
      <trkpt lat="43.44841" lon="6.57913">
        <ele>171.2</ele>
        <time>2022-04-01T12:07:49Z</time>
      </trkpt>
      <trkpt lat="43.44833" lon="6.57907">
        <ele>169.7</ele>
        <time>2022-04-01T12:07:58Z</time>
      </trkpt>
      <trkpt lat="43.44825" lon="6.57902">
        <ele>169.4</ele>
        <time>2022-04-01T12:08:06Z</time>
      </trkpt>
      <trkpt lat="43.44815" lon="6.57898">
        <ele>168.6</ele>
        <time>2022-04-01T12:08:15Z</time>
      </trkpt>
      <trkpt lat="43.44806" lon="6.57897">
        <ele>169.2</ele>
        <time>2022-04-01T12:08:24Z</time>
      </trkpt>
      <trkpt lat="43.44796" lon="6.57896">
        <ele>168.6</ele>
        <time>2022-04-01T12:08:33Z</time>
      </trkpt>
      <trkpt lat="43.44787" lon="6.57895">
        <ele>167.1</ele>
        <time>2022-04-01T12:08:42Z</time>
      </trkpt>
      <trkpt lat="43.44777" lon="6.57893">
        <ele>165.9</ele>
        <time>2022-04-01T12:08:51Z</time>
      </trkpt>
      <trkpt lat="43.44769" lon="6.57887">
        <ele>164.6</ele>
        <time>2022-04-01T12:08:59Z</time>
      </trkpt>
      <trkpt lat="43.44761" lon="6.57882">
        <ele>160.9</ele>
        <time>2022-04-01T12:09:09Z</time>
      </trkpt>
      <trkpt lat="43.44753" lon="6.57876">
        <ele>159.2</ele>
        <time>2022-04-01T12:09:59Z</time>
      </trkpt>
      <trkpt lat="43.44745" lon="6.57868">
        <ele>159</ele>
        <time>2022-04-01T12:10:08Z</time>
      </trkpt>
      <trkpt lat="43.44739" lon="6.57857">
        <ele>158.1</ele>
        <time>2022-04-01T12:10:16Z</time>
      </trkpt>
      <trkpt lat="43.44733" lon="6.57846">
        <ele>157.3</ele>
        <time>2022-04-01T12:10:24Z</time>
      </trkpt>
      <trkpt lat="43.44727" lon="6.57836">
        <ele>156.5</ele>
        <time>2022-04-01T12:10:32Z</time>
      </trkpt>
      <trkpt lat="43.44721" lon="6.57827">
        <ele>153.5</ele>
        <time>2022-04-01T12:10:40Z</time>
      </trkpt>
      <trkpt lat="43.44713" lon="6.5782">
        <ele>152.4</ele>
        <time>2022-04-01T12:10:49Z</time>
      </trkpt>
      <trkpt lat="43.44704" lon="6.57817">
        <ele>150.5</ele>
        <time>2022-04-01T12:10:58Z</time>
      </trkpt>
      <trkpt lat="43.44695" lon="6.57821">
        <ele>148.8</ele>
        <time>2022-04-01T12:11:07Z</time>
      </trkpt>
      <trkpt lat="43.44688" lon="6.57829">
        <ele>146.5</ele>
        <time>2022-04-01T12:12:46Z</time>
      </trkpt>
      <trkpt lat="43.44693" lon="6.57819">
        <ele>149.4</ele>
        <time>2022-04-01T12:13:34Z</time>
      </trkpt>
      <trkpt lat="43.44697" lon="6.57806">
        <ele>151.7</ele>
        <time>2022-04-01T12:14:00Z</time>
      </trkpt>
      <trkpt lat="43.44696" lon="6.57793">
        <ele>148.4</ele>
        <time>2022-04-01T12:14:31Z</time>
      </trkpt>
      <trkpt lat="43.44693" lon="6.5778">
        <ele>147.7</ele>
        <time>2022-04-01T12:14:47Z</time>
      </trkpt>
      <trkpt lat="43.44692" lon="6.57767">
        <ele>147.1</ele>
        <time>2022-04-01T12:14:56Z</time>
      </trkpt>
      <trkpt lat="43.4469" lon="6.57755">
        <ele>146.1</ele>
        <time>2022-04-01T12:15:05Z</time>
      </trkpt>
      <trkpt lat="43.44688" lon="6.57742">
        <ele>146.3</ele>
        <time>2022-04-01T12:15:14Z</time>
      </trkpt>
      <trkpt lat="43.44689" lon="6.57728">
        <ele>145.4</ele>
        <time>2022-04-01T12:15:23Z</time>
      </trkpt>
      <trkpt lat="43.4469" lon="6.57714">
        <ele>143.7</ele>
        <time>2022-04-01T12:15:32Z</time>
      </trkpt>
      <trkpt lat="43.4469" lon="6.57701">
        <ele>142</ele>
        <time>2022-04-01T12:15:41Z</time>
      </trkpt>
      <trkpt lat="43.44691" lon="6.57688">
        <ele>141.3</ele>
        <time>2022-04-01T12:15:49Z</time>
      </trkpt>
      <trkpt lat="43.44692" lon="6.57675">
        <ele>138.9</ele>
        <time>2022-04-01T12:15:58Z</time>
      </trkpt>
      <trkpt lat="43.44695" lon="6.57662">
        <ele>137.7</ele>
        <time>2022-04-01T12:16:07Z</time>
      </trkpt>
      <trkpt lat="43.44698" lon="6.57649">
        <ele>136.5</ele>
        <time>2022-04-01T12:16:16Z</time>
      </trkpt>
      <trkpt lat="43.44701" lon="6.57636">
        <ele>135.7</ele>
        <time>2022-04-01T12:16:25Z</time>
      </trkpt>
      <trkpt lat="43.44705" lon="6.57624">
        <ele>136.4</ele>
        <time>2022-04-01T12:16:33Z</time>
      </trkpt>
      <trkpt lat="43.44707" lon="6.57611">
        <ele>136</ele>
        <time>2022-04-01T12:16:41Z</time>
      </trkpt>
      <trkpt lat="43.44709" lon="6.57598">
        <ele>136.2</ele>
        <time>2022-04-01T12:16:49Z</time>
      </trkpt>
      <trkpt lat="43.44709" lon="6.57585">
        <ele>135.6</ele>
        <time>2022-04-01T12:16:57Z</time>
      </trkpt>
      <trkpt lat="43.44709" lon="6.57573">
        <ele>134.5</ele>
        <time>2022-04-01T12:17:05Z</time>
      </trkpt>
      <trkpt lat="43.44706" lon="6.57559">
        <ele>133.9</ele>
        <time>2022-04-01T12:17:14Z</time>
      </trkpt>
      <trkpt lat="43.44703" lon="6.57547">
        <ele>131</ele>
        <time>2022-04-01T12:17:23Z</time>
      </trkpt>
      <trkpt lat="43.44701" lon="6.57534">
        <ele>128.5</ele>
        <time>2022-04-01T12:17:31Z</time>
      </trkpt>
      <trkpt lat="43.44697" lon="6.57522">
        <ele>126.6</ele>
        <time>2022-04-01T12:17:40Z</time>
      </trkpt>
      <trkpt lat="43.44698" lon="6.57509">
        <ele>125.6</ele>
        <time>2022-04-01T12:17:49Z</time>
      </trkpt>
      <trkpt lat="43.44702" lon="6.57498">
        <ele>124.8</ele>
        <time>2022-04-01T12:17:58Z</time>
      </trkpt>
      <trkpt lat="43.44707" lon="6.57487">
        <ele>123.3</ele>
        <time>2022-04-01T12:18:23Z</time>
      </trkpt>
      <trkpt lat="43.44711" lon="6.57476">
        <ele>122.6</ele>
        <time>2022-04-01T12:18:36Z</time>
      </trkpt>
      <trkpt lat="43.44703" lon="6.57469">
        <ele>122.6</ele>
        <time>2022-04-01T12:18:48Z</time>
      </trkpt>
      <trkpt lat="43.44694" lon="6.57473">
        <ele>122.4</ele>
        <time>2022-04-01T12:19:10Z</time>
      </trkpt>
      <trkpt lat="43.44685" lon="6.57478">
        <ele>123.1</ele>
        <time>2022-04-01T12:19:18Z</time>
      </trkpt>
      <trkpt lat="43.44675" lon="6.57481">
        <ele>123.1</ele>
        <time>2022-04-01T12:19:27Z</time>
      </trkpt>
      <trkpt lat="43.44665" lon="6.57481">
        <ele>122.8</ele>
        <time>2022-04-01T12:19:36Z</time>
      </trkpt>
      <trkpt lat="43.44655" lon="6.57482">
        <ele>123.2</ele>
        <time>2022-04-01T12:19:46Z</time>
      </trkpt>
      <trkpt lat="43.44646" lon="6.57482">
        <ele>122.9</ele>
        <time>2022-04-01T12:19:54Z</time>
      </trkpt>
      <trkpt lat="43.44636" lon="6.57482">
        <ele>122.5</ele>
        <time>2022-04-01T12:20:03Z</time>
      </trkpt>
      <trkpt lat="43.44626" lon="6.5748">
        <ele>123.1</ele>
        <time>2022-04-01T12:20:12Z</time>
      </trkpt>
      <trkpt lat="43.44616" lon="6.57477">
        <ele>123.4</ele>
        <time>2022-04-01T12:20:19Z</time>
      </trkpt>
      <trkpt lat="43.44608" lon="6.57483">
        <ele>122.9</ele>
        <time>2022-04-01T12:20:26Z</time>
      </trkpt>
      <trkpt lat="43.44603" lon="6.57493">
        <ele>122.3</ele>
        <time>2022-04-01T12:20:33Z</time>
      </trkpt>
      <trkpt lat="43.44599" lon="6.57505">
        <ele>123.6</ele>
        <time>2022-04-01T12:20:54Z</time>
      </trkpt>
      <trkpt lat="43.44598" lon="6.57519">
        <ele>123.5</ele>
        <time>2022-04-01T12:21:33Z</time>
      </trkpt>
      <trkpt lat="43.44594" lon="6.57531">
        <ele>123.5</ele>
        <time>2022-04-01T12:21:42Z</time>
      </trkpt>
      <trkpt lat="43.44588" lon="6.57541">
        <ele>123.7</ele>
        <time>2022-04-01T12:21:52Z</time>
      </trkpt>
      <trkpt lat="43.44581" lon="6.57549">
        <ele>123.7</ele>
        <time>2022-04-01T12:22:01Z</time>
      </trkpt>
      <trkpt lat="43.44573" lon="6.57557">
        <ele>125.3</ele>
        <time>2022-04-01T12:22:10Z</time>
      </trkpt>
      <trkpt lat="43.44565" lon="6.57563">
        <ele>124.4</ele>
        <time>2022-04-01T12:22:18Z</time>
      </trkpt>
      <trkpt lat="43.44556" lon="6.57571">
        <ele>125.2</ele>
        <time>2022-04-01T12:22:27Z</time>
      </trkpt>
      <trkpt lat="43.44549" lon="6.57578">
        <ele>126.5</ele>
        <time>2022-04-01T12:22:35Z</time>
      </trkpt>
      <trkpt lat="43.44543" lon="6.5759">
        <ele>126.8</ele>
        <time>2022-04-01T12:22:44Z</time>
      </trkpt>
      <trkpt lat="43.4454" lon="6.57601">
        <ele>127.5</ele>
        <time>2022-04-01T12:22:52Z</time>
      </trkpt>
      <trkpt lat="43.44535" lon="6.57614">
        <ele>128.3</ele>
        <time>2022-04-01T12:23:01Z</time>
      </trkpt>
      <trkpt lat="43.4453" lon="6.57626">
        <ele>128.9</ele>
        <time>2022-04-01T12:23:11Z</time>
      </trkpt>
      <trkpt lat="43.44528" lon="6.57639">
        <ele>129.6</ele>
        <time>2022-04-01T12:23:20Z</time>
      </trkpt>
      <trkpt lat="43.44527" lon="6.57652">
        <ele>130.7</ele>
        <time>2022-04-01T12:23:29Z</time>
      </trkpt>
      <trkpt lat="43.44527" lon="6.57665">
        <ele>132.8</ele>
        <time>2022-04-01T12:23:38Z</time>
      </trkpt>
      <trkpt lat="43.44528" lon="6.57678">
        <ele>134.5</ele>
        <time>2022-04-01T12:23:47Z</time>
      </trkpt>
      <trkpt lat="43.44532" lon="6.5769">
        <ele>136.1</ele>
        <time>2022-04-01T12:23:56Z</time>
      </trkpt>
      <trkpt lat="43.44534" lon="6.57703">
        <ele>137.8</ele>
        <time>2022-04-01T12:24:05Z</time>
      </trkpt>
      <trkpt lat="43.44536" lon="6.57715">
        <ele>138.1</ele>
        <time>2022-04-01T12:24:14Z</time>
      </trkpt>
      <trkpt lat="43.44537" lon="6.57729">
        <ele>138.6</ele>
        <time>2022-04-01T12:24:23Z</time>
      </trkpt>
      <trkpt lat="43.44537" lon="6.57742">
        <ele>139.7</ele>
        <time>2022-04-01T12:24:34Z</time>
      </trkpt>
      <trkpt lat="43.44538" lon="6.57755">
        <ele>141.2</ele>
        <time>2022-04-01T12:24:43Z</time>
      </trkpt>
      <trkpt lat="43.44539" lon="6.57767">
        <ele>142.2</ele>
        <time>2022-04-01T12:24:52Z</time>
      </trkpt>
      <trkpt lat="43.4454" lon="6.5778">
        <ele>142.9</ele>
        <time>2022-04-01T12:25:01Z</time>
      </trkpt>
      <trkpt lat="43.44542" lon="6.57793">
        <ele>143.7</ele>
        <time>2022-04-01T12:25:11Z</time>
      </trkpt>
      <trkpt lat="43.44548" lon="6.57802">
        <ele>145.3</ele>
        <time>2022-04-01T12:26:14Z</time>
      </trkpt>
      <trkpt lat="43.44554" lon="6.57813">
        <ele>146.7</ele>
        <time>2022-04-01T12:26:43Z</time>
      </trkpt>
      <trkpt lat="43.44559" lon="6.57824">
        <ele>146.1</ele>
        <time>2022-04-01T12:26:57Z</time>
      </trkpt>
      <trkpt lat="43.44564" lon="6.57834">
        <ele>146.8</ele>
        <time>2022-04-01T12:27:09Z</time>
      </trkpt>
      <trkpt lat="43.44569" lon="6.57845">
        <ele>148.4</ele>
        <time>2022-04-01T12:27:19Z</time>
      </trkpt>
      <trkpt lat="43.44575" lon="6.57856">
        <ele>148.2</ele>
        <time>2022-04-01T12:27:29Z</time>
      </trkpt>
      <trkpt lat="43.44584" lon="6.57859">
        <ele>148.7</ele>
        <time>2022-04-01T12:27:45Z</time>
      </trkpt>
      <trkpt lat="43.44592" lon="6.57864">
        <ele>150.5</ele>
        <time>2022-04-01T12:27:55Z</time>
      </trkpt>
      <trkpt lat="43.4459" lon="6.57877">
        <ele>151.9</ele>
        <time>2022-04-01T12:29:16Z</time>
      </trkpt>
      <trkpt lat="43.44584" lon="6.57886">
        <ele>152.3</ele>
        <time>2022-04-01T12:29:29Z</time>
      </trkpt>
      <trkpt lat="43.44579" lon="6.57896">
        <ele>152.7</ele>
        <time>2022-04-01T12:29:41Z</time>
      </trkpt>
      <trkpt lat="43.44576" lon="6.57909">
        <ele>153.8</ele>
        <time>2022-04-01T12:29:51Z</time>
      </trkpt>
      <trkpt lat="43.44578" lon="6.57922">
        <ele>154.4</ele>
        <time>2022-04-01T12:30:00Z</time>
      </trkpt>
      <trkpt lat="43.44578" lon="6.57935">
        <ele>155.5</ele>
        <time>2022-04-01T12:30:12Z</time>
      </trkpt>
      <trkpt lat="43.44576" lon="6.57947">
        <ele>156.4</ele>
        <time>2022-04-01T12:30:22Z</time>
      </trkpt>
      <trkpt lat="43.4457" lon="6.57959">
        <ele>156.7</ele>
        <time>2022-04-01T12:30:35Z</time>
      </trkpt>
      <trkpt lat="43.44566" lon="6.57971">
        <ele>157.7</ele>
        <time>2022-04-01T12:30:45Z</time>
      </trkpt>
      <trkpt lat="43.44572" lon="6.5798">
        <ele>157.9</ele>
        <time>2022-04-01T12:30:53Z</time>
      </trkpt>
      <trkpt lat="43.44581" lon="6.57983">
        <ele>158.4</ele>
        <time>2022-04-01T12:31:03Z</time>
      </trkpt>
      <trkpt lat="43.44591" lon="6.57984">
        <ele>159.2</ele>
        <time>2022-04-01T12:31:14Z</time>
      </trkpt>
      <trkpt lat="43.446" lon="6.57986">
        <ele>160.5</ele>
        <time>2022-04-01T12:31:24Z</time>
      </trkpt>
      <trkpt lat="43.44605" lon="6.57997">
        <ele>160.8</ele>
        <time>2022-04-01T12:31:40Z</time>
      </trkpt>
      <trkpt lat="43.44606" lon="6.58011">
        <ele>163</ele>
        <time>2022-04-01T12:31:53Z</time>
      </trkpt>
      <trkpt lat="43.44608" lon="6.58023">
        <ele>164.2</ele>
        <time>2022-04-01T12:32:04Z</time>
      </trkpt>
      <trkpt lat="43.44611" lon="6.58035">
        <ele>164.6</ele>
        <time>2022-04-01T12:32:29Z</time>
      </trkpt>
      <trkpt lat="43.44612" lon="6.58049">
        <ele>164.9</ele>
        <time>2022-04-01T12:32:38Z</time>
      </trkpt>
      <trkpt lat="43.44613" lon="6.58061">
        <ele>166.8</ele>
        <time>2022-04-01T12:32:47Z</time>
      </trkpt>
      <trkpt lat="43.44614" lon="6.58074">
        <ele>167.2</ele>
        <time>2022-04-01T12:32:57Z</time>
      </trkpt>
      <trkpt lat="43.44618" lon="6.58086">
        <ele>167.9</ele>
        <time>2022-04-01T12:33:07Z</time>
      </trkpt>
      <trkpt lat="43.44618" lon="6.58099">
        <ele>169.2</ele>
        <time>2022-04-01T12:33:16Z</time>
      </trkpt>
      <trkpt lat="43.4462" lon="6.58112">
        <ele>170.1</ele>
        <time>2022-04-01T12:33:25Z</time>
      </trkpt>
      <trkpt lat="43.44619" lon="6.58125">
        <ele>170.5</ele>
        <time>2022-04-01T12:33:35Z</time>
      </trkpt>
      <trkpt lat="43.4462" lon="6.58137">
        <ele>171.9</ele>
        <time>2022-04-01T12:33:44Z</time>
      </trkpt>
      <trkpt lat="43.44621" lon="6.5815">
        <ele>172.6</ele>
        <time>2022-04-01T12:33:54Z</time>
      </trkpt>
      <trkpt lat="43.44621" lon="6.58164">
        <ele>174</ele>
        <time>2022-04-01T12:34:03Z</time>
      </trkpt>
      <trkpt lat="43.44623" lon="6.58176">
        <ele>175.1</ele>
        <time>2022-04-01T12:34:12Z</time>
      </trkpt>
      <trkpt lat="43.44624" lon="6.5819">
        <ele>176.2</ele>
        <time>2022-04-01T12:34:22Z</time>
      </trkpt>
      <trkpt lat="43.44622" lon="6.58202">
        <ele>177.6</ele>
        <time>2022-04-01T12:34:34Z</time>
      </trkpt>
      <trkpt lat="43.44619" lon="6.58214">
        <ele>180.2</ele>
        <time>2022-04-01T12:34:46Z</time>
      </trkpt>
      <trkpt lat="43.44617" lon="6.58227">
        <ele>182.5</ele>
        <time>2022-04-01T12:34:58Z</time>
      </trkpt>
      <trkpt lat="43.44614" lon="6.58239">
        <ele>185.3</ele>
        <time>2022-04-01T12:35:13Z</time>
      </trkpt>
      <trkpt lat="43.44607" lon="6.58247">
        <ele>186.9</ele>
        <time>2022-04-01T12:35:24Z</time>
      </trkpt>
      <trkpt lat="43.446" lon="6.58256">
        <ele>188.1</ele>
        <time>2022-04-01T12:35:36Z</time>
      </trkpt>
      <trkpt lat="43.44599" lon="6.58269">
        <ele>190.6</ele>
        <time>2022-04-01T12:35:53Z</time>
      </trkpt>
      <trkpt lat="43.446" lon="6.58282">
        <ele>190.2</ele>
        <time>2022-04-01T12:37:10Z</time>
      </trkpt>
      <trkpt lat="43.44598" lon="6.58295">
        <ele>191.9</ele>
        <time>2022-04-01T12:37:21Z</time>
      </trkpt>
      <trkpt lat="43.44596" lon="6.58308">
        <ele>192.6</ele>
        <time>2022-04-01T12:37:31Z</time>
      </trkpt>
      <trkpt lat="43.44593" lon="6.58319">
        <ele>193.5</ele>
        <time>2022-04-01T12:37:42Z</time>
      </trkpt>
      <trkpt lat="43.44588" lon="6.58331">
        <ele>196</ele>
        <time>2022-04-01T12:37:55Z</time>
      </trkpt>
      <trkpt lat="43.4458" lon="6.58337">
        <ele>198</ele>
        <time>2022-04-01T12:38:07Z</time>
      </trkpt>
      <trkpt lat="43.44571" lon="6.58334">
        <ele>200.3</ele>
        <time>2022-04-01T12:38:23Z</time>
      </trkpt>
      <trkpt lat="43.44562" lon="6.5833">
        <ele>202</ele>
        <time>2022-04-01T12:38:35Z</time>
      </trkpt>
      <trkpt lat="43.44554" lon="6.58333">
        <ele>203.1</ele>
        <time>2022-04-01T12:38:48Z</time>
      </trkpt>
      <trkpt lat="43.44553" lon="6.58347">
        <ele>203.8</ele>
        <time>2022-04-01T12:39:01Z</time>
      </trkpt>
      <trkpt lat="43.44554" lon="6.5836">
        <ele>206.8</ele>
        <time>2022-04-01T12:39:13Z</time>
      </trkpt>
      <trkpt lat="43.44552" lon="6.58373">
        <ele>208.4</ele>
        <time>2022-04-01T12:39:25Z</time>
      </trkpt>
      <trkpt lat="43.4455" lon="6.58385">
        <ele>210.9</ele>
        <time>2022-04-01T12:39:36Z</time>
      </trkpt>
      <trkpt lat="43.44549" lon="6.58398">
        <ele>212.2</ele>
        <time>2022-04-01T12:39:47Z</time>
      </trkpt>
      <trkpt lat="43.44545" lon="6.5841">
        <ele>213.5</ele>
        <time>2022-04-01T12:39:59Z</time>
      </trkpt>
      <trkpt lat="43.44544" lon="6.58422">
        <ele>215.1</ele>
        <time>2022-04-01T12:40:10Z</time>
      </trkpt>
      <trkpt lat="43.44543" lon="6.58435">
        <ele>216.3</ele>
        <time>2022-04-01T12:40:21Z</time>
      </trkpt>
      <trkpt lat="43.44543" lon="6.58448">
        <ele>218.1</ele>
        <time>2022-04-01T12:40:33Z</time>
      </trkpt>
      <trkpt lat="43.44545" lon="6.5846">
        <ele>219.8</ele>
        <time>2022-04-01T12:40:45Z</time>
      </trkpt>
      <trkpt lat="43.44547" lon="6.58472">
        <ele>220.3</ele>
        <time>2022-04-01T12:40:55Z</time>
      </trkpt>
      <trkpt lat="43.44549" lon="6.58485">
        <ele>221</ele>
        <time>2022-04-01T12:41:04Z</time>
      </trkpt>
      <trkpt lat="43.44549" lon="6.58498">
        <ele>222.4</ele>
        <time>2022-04-01T12:41:15Z</time>
      </trkpt>
      <trkpt lat="43.44549" lon="6.5851">
        <ele>223</ele>
        <time>2022-04-01T12:41:26Z</time>
      </trkpt>
      <trkpt lat="43.44549" lon="6.58523">
        <ele>224.8</ele>
        <time>2022-04-01T12:41:36Z</time>
      </trkpt>
      <trkpt lat="43.44546" lon="6.58536">
        <ele>226.8</ele>
        <time>2022-04-01T12:41:48Z</time>
      </trkpt>
      <trkpt lat="43.44542" lon="6.58547">
        <ele>228.3</ele>
        <time>2022-04-01T12:41:58Z</time>
      </trkpt>
      <trkpt lat="43.44535" lon="6.58556">
        <ele>230.4</ele>
        <time>2022-04-01T12:42:11Z</time>
      </trkpt>
      <trkpt lat="43.44528" lon="6.58565">
        <ele>231.9</ele>
        <time>2022-04-01T12:42:22Z</time>
      </trkpt>
      <trkpt lat="43.44527" lon="6.58578">
        <ele>233.1</ele>
        <time>2022-04-01T12:42:32Z</time>
      </trkpt>
      <trkpt lat="43.44518" lon="6.58585">
        <ele>233.5</ele>
        <time>2022-04-01T12:42:44Z</time>
      </trkpt>
      <trkpt lat="43.44512" lon="6.58595">
        <ele>233.4</ele>
        <time>2022-04-01T12:42:54Z</time>
      </trkpt>
      <trkpt lat="43.44507" lon="6.58607">
        <ele>234</ele>
        <time>2022-04-01T12:43:03Z</time>
      </trkpt>
      <trkpt lat="43.44506" lon="6.5862">
        <ele>234.8</ele>
        <time>2022-04-01T12:43:12Z</time>
      </trkpt>
      <trkpt lat="43.44505" lon="6.58632">
        <ele>235.9</ele>
        <time>2022-04-01T12:43:22Z</time>
      </trkpt>
      <trkpt lat="43.44501" lon="6.58644">
        <ele>238</ele>
        <time>2022-04-01T12:43:33Z</time>
      </trkpt>
      <trkpt lat="43.44499" lon="6.58656">
        <ele>238</ele>
        <time>2022-04-01T12:44:28Z</time>
      </trkpt>
      <trkpt lat="43.44509" lon="6.58653">
        <ele>233</ele>
        <time>2022-04-01T12:49:07Z</time>
      </trkpt>
      <trkpt lat="43.44518" lon="6.58658">
        <ele>233.4</ele>
        <time>2022-04-01T12:49:24Z</time>
      </trkpt>
      <trkpt lat="43.44526" lon="6.58666">
        <ele>233.4</ele>
        <time>2022-04-01T12:49:37Z</time>
      </trkpt>
      <trkpt lat="43.44534" lon="6.58671">
        <ele>233.3</ele>
        <time>2022-04-01T12:49:48Z</time>
      </trkpt>
      <trkpt lat="43.44542" lon="6.58678">
        <ele>233.9</ele>
        <time>2022-04-01T12:49:59Z</time>
      </trkpt>
      <trkpt lat="43.44551" lon="6.58681">
        <ele>234.8</ele>
        <time>2022-04-01T12:50:10Z</time>
      </trkpt>
      <trkpt lat="43.44559" lon="6.58684">
        <ele>235.2</ele>
        <time>2022-04-01T12:50:20Z</time>
      </trkpt>
      <trkpt lat="43.44568" lon="6.58685">
        <ele>235.9</ele>
        <time>2022-04-01T12:50:30Z</time>
      </trkpt>
      <trkpt lat="43.44577" lon="6.58686">
        <ele>236.4</ele>
        <time>2022-04-01T12:50:41Z</time>
      </trkpt>
      <trkpt lat="43.44587" lon="6.58685">
        <ele>235.4</ele>
        <time>2022-04-01T12:50:53Z</time>
      </trkpt>
      <trkpt lat="43.44596" lon="6.58689">
        <ele>234.6</ele>
        <time>2022-04-01T12:51:07Z</time>
      </trkpt>
      <trkpt lat="43.44606" lon="6.58691">
        <ele>234.2</ele>
        <time>2022-04-01T12:51:18Z</time>
      </trkpt>
      <trkpt lat="43.44615" lon="6.58693">
        <ele>234.7</ele>
        <time>2022-04-01T12:51:28Z</time>
      </trkpt>
      <trkpt lat="43.44624" lon="6.58697">
        <ele>233.7</ele>
        <time>2022-04-01T12:51:37Z</time>
      </trkpt>
      <trkpt lat="43.44632" lon="6.58702">
        <ele>232.2</ele>
        <time>2022-04-01T12:51:47Z</time>
      </trkpt>
      <trkpt lat="43.44641" lon="6.58707">
        <ele>231.7</ele>
        <time>2022-04-01T12:51:56Z</time>
      </trkpt>
      <trkpt lat="43.4465" lon="6.58711">
        <ele>230.2</ele>
        <time>2022-04-01T12:52:05Z</time>
      </trkpt>
      <trkpt lat="43.44659" lon="6.58713">
        <ele>229.9</ele>
        <time>2022-04-01T12:52:13Z</time>
      </trkpt>
      <trkpt lat="43.44668" lon="6.58717">
        <ele>228.7</ele>
        <time>2022-04-01T12:52:22Z</time>
      </trkpt>
      <trkpt lat="43.44677" lon="6.58717">
        <ele>227.2</ele>
        <time>2022-04-01T12:52:38Z</time>
      </trkpt>
      <trkpt lat="43.4468" lon="6.5873">
        <ele>227.2</ele>
        <time>2022-04-01T12:53:38Z</time>
      </trkpt>
      <trkpt lat="43.44677" lon="6.58742">
        <ele>224.3</ele>
        <time>2022-04-01T12:53:49Z</time>
      </trkpt>
      <trkpt lat="43.44673" lon="6.58754">
        <ele>225.1</ele>
        <time>2022-04-01T12:53:59Z</time>
      </trkpt>
      <trkpt lat="43.44669" lon="6.58766">
        <ele>224.9</ele>
        <time>2022-04-01T12:54:09Z</time>
      </trkpt>
      <trkpt lat="43.44665" lon="6.58778">
        <ele>225.3</ele>
        <time>2022-04-01T12:54:19Z</time>
      </trkpt>
      <trkpt lat="43.44659" lon="6.58788">
        <ele>225</ele>
        <time>2022-04-01T12:54:29Z</time>
      </trkpt>
      <trkpt lat="43.44655" lon="6.58801">
        <ele>223.4</ele>
        <time>2022-04-01T12:54:38Z</time>
      </trkpt>
      <trkpt lat="43.44651" lon="6.58812">
        <ele>222.4</ele>
        <time>2022-04-01T12:54:47Z</time>
      </trkpt>
      <trkpt lat="43.44647" lon="6.58823">
        <ele>222.3</ele>
        <time>2022-04-01T12:54:56Z</time>
      </trkpt>
      <trkpt lat="43.44642" lon="6.58834">
        <ele>222.5</ele>
        <time>2022-04-01T12:55:05Z</time>
      </trkpt>
      <trkpt lat="43.44638" lon="6.58846">
        <ele>221.9</ele>
        <time>2022-04-01T12:55:14Z</time>
      </trkpt>
      <trkpt lat="43.44633" lon="6.58857">
        <ele>221.4</ele>
        <time>2022-04-01T12:55:23Z</time>
      </trkpt>
      <trkpt lat="43.44629" lon="6.58869">
        <ele>221.6</ele>
        <time>2022-04-01T12:55:35Z</time>
      </trkpt>
      <trkpt lat="43.44624" lon="6.58879">
        <ele>221.1</ele>
        <time>2022-04-01T12:55:45Z</time>
      </trkpt>
      <trkpt lat="43.4462" lon="6.58891">
        <ele>220.5</ele>
        <time>2022-04-01T12:55:54Z</time>
      </trkpt>
      <trkpt lat="43.44615" lon="6.58903">
        <ele>220.1</ele>
        <time>2022-04-01T12:56:03Z</time>
      </trkpt>
      <trkpt lat="43.44611" lon="6.58914">
        <ele>219.7</ele>
        <time>2022-04-01T12:56:12Z</time>
      </trkpt>
      <trkpt lat="43.44607" lon="6.58924">
        <ele>219.8</ele>
        <time>2022-04-01T12:56:21Z</time>
      </trkpt>
      <trkpt lat="43.44602" lon="6.58937">
        <ele>219.8</ele>
        <time>2022-04-01T12:56:31Z</time>
      </trkpt>
      <trkpt lat="43.44597" lon="6.58947">
        <ele>218.9</ele>
        <time>2022-04-01T12:56:40Z</time>
      </trkpt>
      <trkpt lat="43.44593" lon="6.5896">
        <ele>218</ele>
        <time>2022-04-01T12:56:49Z</time>
      </trkpt>
      <trkpt lat="43.4459" lon="6.58972">
        <ele>218.6</ele>
        <time>2022-04-01T12:57:09Z</time>
      </trkpt>
      <trkpt lat="43.44586" lon="6.58984">
        <ele>217.3</ele>
        <time>2022-04-01T12:57:20Z</time>
      </trkpt>
      <trkpt lat="43.44582" lon="6.58995">
        <ele>217.6</ele>
        <time>2022-04-01T12:57:43Z</time>
      </trkpt>
      <trkpt lat="43.44579" lon="6.59008">
        <ele>216.7</ele>
        <time>2022-04-01T12:57:53Z</time>
      </trkpt>
      <trkpt lat="43.44587" lon="6.59014">
        <ele>215.6</ele>
        <time>2022-04-01T12:58:37Z</time>
      </trkpt>
      <trkpt lat="43.44597" lon="6.59015">
        <ele>215.5</ele>
        <time>2022-04-01T12:58:48Z</time>
      </trkpt>
      <trkpt lat="43.44606" lon="6.59016">
        <ele>215.3</ele>
        <time>2022-04-01T12:58:58Z</time>
      </trkpt>
      <trkpt lat="43.44615" lon="6.59019">
        <ele>214.9</ele>
        <time>2022-04-01T12:59:07Z</time>
      </trkpt>
      <trkpt lat="43.44624" lon="6.59021">
        <ele>214.4</ele>
        <time>2022-04-01T12:59:16Z</time>
      </trkpt>
      <trkpt lat="43.44633" lon="6.59024">
        <ele>212.8</ele>
        <time>2022-04-01T12:59:25Z</time>
      </trkpt>
      <trkpt lat="43.44642" lon="6.59025">
        <ele>212.7</ele>
        <time>2022-04-01T12:59:35Z</time>
      </trkpt>
      <trkpt lat="43.44652" lon="6.59028">
        <ele>212.4</ele>
        <time>2022-04-01T12:59:45Z</time>
      </trkpt>
      <trkpt lat="43.44661" lon="6.59029">
        <ele>211.6</ele>
        <time>2022-04-01T12:59:54Z</time>
      </trkpt>
      <trkpt lat="43.44669" lon="6.59021">
        <ele>207.7</ele>
        <time>2022-04-01T13:03:43Z</time>
      </trkpt>
      <trkpt lat="43.44677" lon="6.59026">
        <ele>207.1</ele>
        <time>2022-04-01T13:04:13Z</time>
      </trkpt>
      <trkpt lat="43.44686" lon="6.59032">
        <ele>207.3</ele>
        <time>2022-04-01T13:04:26Z</time>
      </trkpt>
      <trkpt lat="43.44694" lon="6.59037">
        <ele>206.5</ele>
        <time>2022-04-01T13:04:37Z</time>
      </trkpt>
      <trkpt lat="43.44703" lon="6.59041">
        <ele>207</ele>
        <time>2022-04-01T13:04:49Z</time>
      </trkpt>
      <trkpt lat="43.44713" lon="6.59043">
        <ele>206.9</ele>
        <time>2022-04-01T13:05:02Z</time>
      </trkpt>
      <trkpt lat="43.44722" lon="6.59044">
        <ele>206.7</ele>
        <time>2022-04-01T13:05:13Z</time>
      </trkpt>
      <trkpt lat="43.44732" lon="6.59044">
        <ele>206.3</ele>
        <time>2022-04-01T13:05:23Z</time>
      </trkpt>
      <trkpt lat="43.44741" lon="6.59045">
        <ele>207.3</ele>
        <time>2022-04-01T13:05:33Z</time>
      </trkpt>
      <trkpt lat="43.4475" lon="6.59046">
        <ele>206.4</ele>
        <time>2022-04-01T13:05:42Z</time>
      </trkpt>
      <trkpt lat="43.4476" lon="6.59046">
        <ele>204.7</ele>
        <time>2022-04-01T13:05:58Z</time>
      </trkpt>
      <trkpt lat="43.4477" lon="6.59046">
        <ele>205.2</ele>
        <time>2022-04-01T13:06:09Z</time>
      </trkpt>
      <trkpt lat="43.44779" lon="6.59045">
        <ele>203.7</ele>
        <time>2022-04-01T13:06:17Z</time>
      </trkpt>
      <trkpt lat="43.44788" lon="6.59043">
        <ele>201.8</ele>
        <time>2022-04-01T13:06:26Z</time>
      </trkpt>
      <trkpt lat="43.44797" lon="6.59045">
        <ele>201.3</ele>
        <time>2022-04-01T13:06:36Z</time>
      </trkpt>
      <trkpt lat="43.44803" lon="6.59056">
        <ele>199.3</ele>
        <time>2022-04-01T13:06:50Z</time>
      </trkpt>
      <trkpt lat="43.44805" lon="6.59069">
        <ele>196.9</ele>
        <time>2022-04-01T13:07:02Z</time>
      </trkpt>
      <trkpt lat="43.44807" lon="6.59081">
        <ele>195.9</ele>
        <time>2022-04-01T13:07:15Z</time>
      </trkpt>
      <trkpt lat="43.44811" lon="6.59093">
        <ele>193.8</ele>
        <time>2022-04-01T13:07:25Z</time>
      </trkpt>
      <trkpt lat="43.44813" lon="6.59106">
        <ele>192</ele>
        <time>2022-04-01T13:07:37Z</time>
      </trkpt>
      <trkpt lat="43.44818" lon="6.59116">
        <ele>190.3</ele>
        <time>2022-04-01T13:07:47Z</time>
      </trkpt>
      <trkpt lat="43.44825" lon="6.59127">
        <ele>188.7</ele>
        <time>2022-04-01T13:07:55Z</time>
      </trkpt>
      <trkpt lat="43.44831" lon="6.59137">
        <ele>188</ele>
        <time>2022-04-01T13:08:06Z</time>
      </trkpt>
      <trkpt lat="43.44839" lon="6.59142">
        <ele>186.1</ele>
        <time>2022-04-01T13:08:17Z</time>
      </trkpt>
      <trkpt lat="43.44849" lon="6.59139">
        <ele>183.8</ele>
        <time>2022-04-01T13:08:29Z</time>
      </trkpt>
      <trkpt lat="43.44858" lon="6.59139">
        <ele>182.5</ele>
        <time>2022-04-01T13:08:41Z</time>
      </trkpt>
      <trkpt lat="43.4486" lon="6.59151">
        <ele>179.9</ele>
        <time>2022-04-01T13:09:24Z</time>
      </trkpt>
      <trkpt lat="43.44855" lon="6.59162">
        <ele>180.1</ele>
        <time>2022-04-01T13:09:38Z</time>
      </trkpt>
      <trkpt lat="43.44851" lon="6.59173">
        <ele>178.8</ele>
        <time>2022-04-01T13:09:49Z</time>
      </trkpt>
      <trkpt lat="43.44846" lon="6.59185">
        <ele>179.9</ele>
        <time>2022-04-01T13:10:02Z</time>
      </trkpt>
      <trkpt lat="43.44844" lon="6.59197">
        <ele>180.5</ele>
        <time>2022-04-01T13:10:14Z</time>
      </trkpt>
      <trkpt lat="43.44838" lon="6.59208">
        <ele>181.4</ele>
        <time>2022-04-01T13:10:25Z</time>
      </trkpt>
      <trkpt lat="43.44837" lon="6.5922">
        <ele>180.7</ele>
        <time>2022-04-01T13:10:34Z</time>
      </trkpt>
      <trkpt lat="43.44835" lon="6.59232">
        <ele>180.5</ele>
        <time>2022-04-01T13:10:45Z</time>
      </trkpt>
      <trkpt lat="43.44829" lon="6.59243">
        <ele>181.6</ele>
        <time>2022-04-01T13:10:57Z</time>
      </trkpt>
      <trkpt lat="43.44825" lon="6.59254">
        <ele>181.6</ele>
        <time>2022-04-01T13:11:09Z</time>
      </trkpt>
      <trkpt lat="43.4482" lon="6.59265">
        <ele>181.5</ele>
        <time>2022-04-01T13:11:22Z</time>
      </trkpt>
      <trkpt lat="43.44816" lon="6.59276">
        <ele>182.7</ele>
        <time>2022-04-01T13:11:34Z</time>
      </trkpt>
      <trkpt lat="43.44809" lon="6.59285">
        <ele>182.8</ele>
        <time>2022-04-01T13:11:49Z</time>
      </trkpt>
      <trkpt lat="43.44804" lon="6.59296">
        <ele>184.2</ele>
        <time>2022-04-01T13:12:04Z</time>
      </trkpt>
      <trkpt lat="43.44799" lon="6.59307">
        <ele>185.6</ele>
        <time>2022-04-01T13:12:17Z</time>
      </trkpt>
      <trkpt lat="43.44794" lon="6.59319">
        <ele>186.4</ele>
        <time>2022-04-01T13:12:26Z</time>
      </trkpt>
      <trkpt lat="43.4479" lon="6.5933">
        <ele>187.4</ele>
        <time>2022-04-01T13:12:36Z</time>
      </trkpt>
      <trkpt lat="43.44786" lon="6.59341">
        <ele>187.3</ele>
        <time>2022-04-01T13:12:46Z</time>
      </trkpt>
      <trkpt lat="43.44783" lon="6.59353">
        <ele>186.4</ele>
        <time>2022-04-01T13:12:56Z</time>
      </trkpt>
      <trkpt lat="43.44781" lon="6.59366">
        <ele>188.4</ele>
        <time>2022-04-01T13:13:06Z</time>
      </trkpt>
      <trkpt lat="43.44782" lon="6.59378">
        <ele>188.2</ele>
        <time>2022-04-01T13:13:15Z</time>
      </trkpt>
      <trkpt lat="43.44787" lon="6.5939">
        <ele>189.1</ele>
        <time>2022-04-01T13:13:26Z</time>
      </trkpt>
      <trkpt lat="43.44792" lon="6.594">
        <ele>189.8</ele>
        <time>2022-04-01T13:13:39Z</time>
      </trkpt>
      <trkpt lat="43.44799" lon="6.5941">
        <ele>190.5</ele>
        <time>2022-04-01T13:13:47Z</time>
      </trkpt>
      <trkpt lat="43.44805" lon="6.5942">
        <ele>189.7</ele>
        <time>2022-04-01T13:14:34Z</time>
      </trkpt>
      <trkpt lat="43.44812" lon="6.59427">
        <ele>190.8</ele>
        <time>2022-04-01T13:15:00Z</time>
      </trkpt>
      <trkpt lat="43.44819" lon="6.59418">
        <ele>191.4</ele>
        <time>2022-04-01T13:16:57Z</time>
      </trkpt>
      <trkpt lat="43.44827" lon="6.59412">
        <ele>192.2</ele>
        <time>2022-04-01T13:17:09Z</time>
      </trkpt>
      <trkpt lat="43.44834" lon="6.59403">
        <ele>191.9</ele>
        <time>2022-04-01T13:17:19Z</time>
      </trkpt>
      <trkpt lat="43.44841" lon="6.59395">
        <ele>192.8</ele>
        <time>2022-04-01T13:17:29Z</time>
      </trkpt>
      <trkpt lat="43.4485" lon="6.5939">
        <ele>191.6</ele>
        <time>2022-04-01T13:17:41Z</time>
      </trkpt>
      <trkpt lat="43.44859" lon="6.59386">
        <ele>191.9</ele>
        <time>2022-04-01T13:17:54Z</time>
      </trkpt>
      <trkpt lat="43.44867" lon="6.59378">
        <ele>190.7</ele>
        <time>2022-04-01T13:18:28Z</time>
      </trkpt>
      <trkpt lat="43.44874" lon="6.5937">
        <ele>188.8</ele>
        <time>2022-04-01T13:18:39Z</time>
      </trkpt>
      <trkpt lat="43.44881" lon="6.5936">
        <ele>188.3</ele>
        <time>2022-04-01T13:18:49Z</time>
      </trkpt>
      <trkpt lat="43.44889" lon="6.59353">
        <ele>187.6</ele>
        <time>2022-04-01T13:19:01Z</time>
      </trkpt>
      <trkpt lat="43.44897" lon="6.59347">
        <ele>186.8</ele>
        <time>2022-04-01T13:19:15Z</time>
      </trkpt>
      <trkpt lat="43.44904" lon="6.59337">
        <ele>187.8</ele>
        <time>2022-04-01T13:19:29Z</time>
      </trkpt>
      <trkpt lat="43.4491" lon="6.59327">
        <ele>188.2</ele>
        <time>2022-04-01T13:19:41Z</time>
      </trkpt>
      <trkpt lat="43.44915" lon="6.59315">
        <ele>188.8</ele>
        <time>2022-04-01T13:19:51Z</time>
      </trkpt>
      <trkpt lat="43.44923" lon="6.59311">
        <ele>189.8</ele>
        <time>2022-04-01T13:20:26Z</time>
      </trkpt>
      <trkpt lat="43.44933" lon="6.59313">
        <ele>191</ele>
        <time>2022-04-01T13:20:40Z</time>
      </trkpt>
      <trkpt lat="43.44943" lon="6.59312">
        <ele>193.9</ele>
        <time>2022-04-01T13:20:52Z</time>
      </trkpt>
      <trkpt lat="43.44949" lon="6.59321">
        <ele>194.4</ele>
        <time>2022-04-01T13:21:19Z</time>
      </trkpt>
      <trkpt lat="43.44955" lon="6.59331">
        <ele>195.7</ele>
        <time>2022-04-01T13:21:32Z</time>
      </trkpt>
      <trkpt lat="43.44961" lon="6.59341">
        <ele>197</ele>
        <time>2022-04-01T13:21:46Z</time>
      </trkpt>
      <trkpt lat="43.4497" lon="6.59345">
        <ele>197.7</ele>
        <time>2022-04-01T13:21:59Z</time>
      </trkpt>
      <trkpt lat="43.44979" lon="6.59342">
        <ele>200.4</ele>
        <time>2022-04-01T13:22:11Z</time>
      </trkpt>
      <trkpt lat="43.44988" lon="6.5934">
        <ele>200.4</ele>
        <time>2022-04-01T13:22:44Z</time>
      </trkpt>
      <trkpt lat="43.44996" lon="6.59347">
        <ele>201.3</ele>
        <time>2022-04-01T13:23:05Z</time>
      </trkpt>
      <trkpt lat="43.45" lon="6.59358">
        <ele>204.5</ele>
        <time>2022-04-01T13:23:23Z</time>
      </trkpt>
      <trkpt lat="43.45009" lon="6.59363">
        <ele>206.7</ele>
        <time>2022-04-01T13:23:40Z</time>
      </trkpt>
      <trkpt lat="43.45018" lon="6.59361">
        <ele>208.9</ele>
        <time>2022-04-01T13:23:54Z</time>
      </trkpt>
      <trkpt lat="43.45027" lon="6.59363">
        <ele>212.3</ele>
        <time>2022-04-01T13:24:19Z</time>
      </trkpt>
      <trkpt lat="43.45036" lon="6.59361">
        <ele>214.3</ele>
        <time>2022-04-01T13:24:32Z</time>
      </trkpt>
      <trkpt lat="43.45046" lon="6.59361">
        <ele>215.9</ele>
        <time>2022-04-01T13:24:47Z</time>
      </trkpt>
      <trkpt lat="43.45055" lon="6.5936">
        <ele>218.6</ele>
        <time>2022-04-01T13:25:10Z</time>
      </trkpt>
      <trkpt lat="43.45064" lon="6.59361">
        <ele>219.3</ele>
        <time>2022-04-01T13:25:23Z</time>
      </trkpt>
      <trkpt lat="43.45066" lon="6.59349">
        <ele>220.1</ele>
        <time>2022-04-01T13:25:35Z</time>
      </trkpt>
      <trkpt lat="43.45073" lon="6.5934">
        <ele>219.7</ele>
        <time>2022-04-01T13:25:49Z</time>
      </trkpt>
      <trkpt lat="43.45068" lon="6.5935">
        <ele>217.7</ele>
        <time>2022-04-01T13:31:00Z</time>
      </trkpt>
      <trkpt lat="43.45077" lon="6.59354">
        <ele>218.1</ele>
        <time>2022-04-01T13:31:14Z</time>
      </trkpt>
      <trkpt lat="43.45087" lon="6.59353">
        <ele>218.2</ele>
        <time>2022-04-01T13:31:27Z</time>
      </trkpt>
      <trkpt lat="43.45096" lon="6.59358">
        <ele>217.8</ele>
        <time>2022-04-01T13:31:40Z</time>
      </trkpt>
      <trkpt lat="43.45105" lon="6.5936">
        <ele>216.8</ele>
        <time>2022-04-01T13:31:55Z</time>
      </trkpt>
      <trkpt lat="43.45113" lon="6.59367">
        <ele>217.1</ele>
        <time>2022-04-01T13:32:08Z</time>
      </trkpt>
      <trkpt lat="43.45121" lon="6.59374">
        <ele>218.6</ele>
        <time>2022-04-01T13:32:24Z</time>
      </trkpt>
      <trkpt lat="43.4513" lon="6.59375">
        <ele>219.5</ele>
        <time>2022-04-01T13:33:03Z</time>
      </trkpt>
      <trkpt lat="43.45139" lon="6.59372">
        <ele>218.5</ele>
        <time>2022-04-01T13:33:29Z</time>
      </trkpt>
      <trkpt lat="43.45147" lon="6.59363">
        <ele>216.7</ele>
        <time>2022-04-01T13:33:39Z</time>
      </trkpt>
      <trkpt lat="43.45154" lon="6.5937">
        <ele>216.5</ele>
        <time>2022-04-01T13:38:40Z</time>
      </trkpt>
      <trkpt lat="43.45164" lon="6.59371">
        <ele>215.4</ele>
        <time>2022-04-01T13:38:54Z</time>
      </trkpt>
      <trkpt lat="43.45173" lon="6.59374">
        <ele>216.3</ele>
        <time>2022-04-01T13:39:05Z</time>
      </trkpt>
      <trkpt lat="43.45182" lon="6.59375">
        <ele>217.1</ele>
        <time>2022-04-01T13:39:14Z</time>
      </trkpt>
      <trkpt lat="43.45191" lon="6.59382">
        <ele>217.7</ele>
        <time>2022-04-01T13:39:23Z</time>
      </trkpt>
      <trkpt lat="43.452" lon="6.59386">
        <ele>218.1</ele>
        <time>2022-04-01T13:39:33Z</time>
      </trkpt>
      <trkpt lat="43.45208" lon="6.59394">
        <ele>218.5</ele>
        <time>2022-04-01T13:39:46Z</time>
      </trkpt>
      <trkpt lat="43.45216" lon="6.59399">
        <ele>218.7</ele>
        <time>2022-04-01T13:40:00Z</time>
      </trkpt>
      <trkpt lat="43.45225" lon="6.59401">
        <ele>217.8</ele>
        <time>2022-04-01T13:40:14Z</time>
      </trkpt>
      <trkpt lat="43.45235" lon="6.594">
        <ele>218.2</ele>
        <time>2022-04-01T13:40:21Z</time>
      </trkpt>
      <trkpt lat="43.45244" lon="6.59403">
        <ele>218.3</ele>
        <time>2022-04-01T13:40:34Z</time>
      </trkpt>
      <trkpt lat="43.45253" lon="6.59406">
        <ele>218.5</ele>
        <time>2022-04-01T13:40:50Z</time>
      </trkpt>
      <trkpt lat="43.45263" lon="6.59406">
        <ele>217.5</ele>
        <time>2022-04-01T13:41:00Z</time>
      </trkpt>
      <trkpt lat="43.45272" lon="6.59409">
        <ele>218.3</ele>
        <time>2022-04-01T13:41:11Z</time>
      </trkpt>
      <trkpt lat="43.4528" lon="6.59416">
        <ele>218.9</ele>
        <time>2022-04-01T13:41:24Z</time>
      </trkpt>
      <trkpt lat="43.45288" lon="6.59423">
        <ele>217.9</ele>
        <time>2022-04-01T13:41:38Z</time>
      </trkpt>
      <trkpt lat="43.45296" lon="6.59427">
        <ele>218.2</ele>
        <time>2022-04-01T13:41:49Z</time>
      </trkpt>
      <trkpt lat="43.45306" lon="6.59431">
        <ele>217.7</ele>
        <time>2022-04-01T13:41:59Z</time>
      </trkpt>
      <trkpt lat="43.45315" lon="6.5943">
        <ele>217.8</ele>
        <time>2022-04-01T13:42:09Z</time>
      </trkpt>
      <trkpt lat="43.45324" lon="6.59431">
        <ele>217.7</ele>
        <time>2022-04-01T13:42:20Z</time>
      </trkpt>
      <trkpt lat="43.45334" lon="6.59427">
        <ele>218.7</ele>
        <time>2022-04-01T13:42:28Z</time>
      </trkpt>
      <trkpt lat="43.45343" lon="6.59421">
        <ele>218</ele>
        <time>2022-04-01T13:42:38Z</time>
      </trkpt>
      <trkpt lat="43.45351" lon="6.59415">
        <ele>219.7</ele>
        <time>2022-04-01T13:42:53Z</time>
      </trkpt>
      <trkpt lat="43.4536" lon="6.59412">
        <ele>222.9</ele>
        <time>2022-04-01T13:43:11Z</time>
      </trkpt>
      <trkpt lat="43.45368" lon="6.59404">
        <ele>223.9</ele>
        <time>2022-04-01T13:44:00Z</time>
      </trkpt>
      <trkpt lat="43.45377" lon="6.59406">
        <ele>225.5</ele>
        <time>2022-04-01T13:44:13Z</time>
      </trkpt>
      <trkpt lat="43.45383" lon="6.59415">
        <ele>226.5</ele>
        <time>2022-04-01T13:44:25Z</time>
      </trkpt>
      <trkpt lat="43.45391" lon="6.59423">
        <ele>225.6</ele>
        <time>2022-04-01T13:44:56Z</time>
      </trkpt>
      <trkpt lat="43.45397" lon="6.59432">
        <ele>225.4</ele>
        <time>2022-04-01T13:45:10Z</time>
      </trkpt>
      <trkpt lat="43.45391" lon="6.59423">
        <ele>224.9</ele>
        <time>2022-04-01T13:47:13Z</time>
      </trkpt>
      <trkpt lat="43.45389" lon="6.5941">
        <ele>226</ele>
        <time>2022-04-01T13:47:59Z</time>
      </trkpt>
      <trkpt lat="43.45382" lon="6.59403">
        <ele>225.6</ele>
        <time>2022-04-01T13:49:44Z</time>
      </trkpt>
      <trkpt lat="43.45373" lon="6.59398">
        <ele>224.3</ele>
        <time>2022-04-01T13:50:48Z</time>
      </trkpt>
      <trkpt lat="43.45364" lon="6.59396">
        <ele>223.5</ele>
        <time>2022-04-01T13:51:11Z</time>
      </trkpt>
      <trkpt lat="43.45354" lon="6.59399">
        <ele>219.5</ele>
        <time>2022-04-01T13:51:41Z</time>
      </trkpt>
      <trkpt lat="43.45345" lon="6.59404">
        <ele>218</ele>
        <time>2022-04-01T13:52:04Z</time>
      </trkpt>
      <trkpt lat="43.45336" lon="6.59406">
        <ele>218.3</ele>
        <time>2022-04-01T13:52:23Z</time>
      </trkpt>
      <trkpt lat="43.45328" lon="6.59412">
        <ele>218</ele>
        <time>2022-04-01T13:52:36Z</time>
      </trkpt>
      <trkpt lat="43.45319" lon="6.59414">
        <ele>217.8</ele>
        <time>2022-04-01T13:52:52Z</time>
      </trkpt>
      <trkpt lat="43.45309" lon="6.59415">
        <ele>218.3</ele>
        <time>2022-04-01T13:53:03Z</time>
      </trkpt>
      <trkpt lat="43.453" lon="6.59411">
        <ele>219.4</ele>
        <time>2022-04-01T13:53:16Z</time>
      </trkpt>
      <trkpt lat="43.45291" lon="6.59406">
        <ele>219.8</ele>
        <time>2022-04-01T13:53:25Z</time>
      </trkpt>
      <trkpt lat="43.45282" lon="6.59399">
        <ele>219.7</ele>
        <time>2022-04-01T13:53:34Z</time>
      </trkpt>
      <trkpt lat="43.45273" lon="6.59399">
        <ele>220.3</ele>
        <time>2022-04-01T13:53:45Z</time>
      </trkpt>
      <trkpt lat="43.45264" lon="6.59397">
        <ele>220.8</ele>
        <time>2022-04-01T13:53:55Z</time>
      </trkpt>
      <trkpt lat="43.45254" lon="6.59396">
        <ele>221.4</ele>
        <time>2022-04-01T13:54:06Z</time>
      </trkpt>
      <trkpt lat="43.45245" lon="6.59394">
        <ele>221.7</ele>
        <time>2022-04-01T13:54:17Z</time>
      </trkpt>
      <trkpt lat="43.45235" lon="6.59394">
        <ele>221.9</ele>
        <time>2022-04-01T13:54:28Z</time>
      </trkpt>
      <trkpt lat="43.45226" lon="6.59392">
        <ele>222.4</ele>
        <time>2022-04-01T13:54:37Z</time>
      </trkpt>
      <trkpt lat="43.45218" lon="6.59387">
        <ele>223.4</ele>
        <time>2022-04-01T13:54:51Z</time>
      </trkpt>
      <trkpt lat="43.4521" lon="6.59381">
        <ele>220.2</ele>
        <time>2022-04-01T13:55:02Z</time>
      </trkpt>
      <trkpt lat="43.45201" lon="6.59376">
        <ele>217.8</ele>
        <time>2022-04-01T13:55:15Z</time>
      </trkpt>
      <trkpt lat="43.45192" lon="6.5937">
        <ele>214.9</ele>
        <time>2022-04-01T13:55:28Z</time>
      </trkpt>
      <trkpt lat="43.45183" lon="6.5937">
        <ele>215.4</ele>
        <time>2022-04-01T13:55:37Z</time>
      </trkpt>
      <trkpt lat="43.45174" lon="6.59368">
        <ele>214.6</ele>
        <time>2022-04-01T13:55:48Z</time>
      </trkpt>
      <trkpt lat="43.45165" lon="6.59367">
        <ele>214</ele>
        <time>2022-04-01T13:55:58Z</time>
      </trkpt>
      <trkpt lat="43.45155" lon="6.59366">
        <ele>213.4</ele>
        <time>2022-04-01T13:56:08Z</time>
      </trkpt>
      <trkpt lat="43.45146" lon="6.59367">
        <ele>215.1</ele>
        <time>2022-04-01T13:56:21Z</time>
      </trkpt>
      <trkpt lat="43.45137" lon="6.5937">
        <ele>216.4</ele>
        <time>2022-04-01T13:56:33Z</time>
      </trkpt>
      <trkpt lat="43.45128" lon="6.59371">
        <ele>216.9</ele>
        <time>2022-04-01T13:56:48Z</time>
      </trkpt>
      <trkpt lat="43.4512" lon="6.59363">
        <ele>216</ele>
        <time>2022-04-01T13:57:03Z</time>
      </trkpt>
      <trkpt lat="43.45112" lon="6.59359">
        <ele>215.7</ele>
        <time>2022-04-01T13:57:14Z</time>
      </trkpt>
      <trkpt lat="43.45103" lon="6.59356">
        <ele>216.2</ele>
        <time>2022-04-01T13:57:25Z</time>
      </trkpt>
      <trkpt lat="43.45093" lon="6.59354">
        <ele>217.1</ele>
        <time>2022-04-01T13:57:36Z</time>
      </trkpt>
      <trkpt lat="43.45084" lon="6.59353">
        <ele>217.7</ele>
        <time>2022-04-01T13:57:47Z</time>
      </trkpt>
      <trkpt lat="43.45075" lon="6.59354">
        <ele>218</ele>
        <time>2022-04-01T13:57:59Z</time>
      </trkpt>
      <trkpt lat="43.45066" lon="6.59355">
        <ele>217.9</ele>
        <time>2022-04-01T13:58:12Z</time>
      </trkpt>
      <trkpt lat="43.45056" lon="6.59353">
        <ele>218</ele>
        <time>2022-04-01T13:58:25Z</time>
      </trkpt>
      <trkpt lat="43.45047" lon="6.59353">
        <ele>217.1</ele>
        <time>2022-04-01T13:58:40Z</time>
      </trkpt>
      <trkpt lat="43.45038" lon="6.59355">
        <ele>215.4</ele>
        <time>2022-04-01T13:58:57Z</time>
      </trkpt>
      <trkpt lat="43.45029" lon="6.59352">
        <ele>213</ele>
        <time>2022-04-01T13:59:17Z</time>
      </trkpt>
      <trkpt lat="43.4502" lon="6.59355">
        <ele>208.9</ele>
        <time>2022-04-01T13:59:38Z</time>
      </trkpt>
      <trkpt lat="43.45011" lon="6.59354">
        <ele>206.8</ele>
        <time>2022-04-01T13:59:52Z</time>
      </trkpt>
      <trkpt lat="43.45004" lon="6.59346">
        <ele>204.1</ele>
        <time>2022-04-01T14:00:12Z</time>
      </trkpt>
      <trkpt lat="43.44995" lon="6.59342">
        <ele>200.4</ele>
        <time>2022-04-01T14:00:25Z</time>
      </trkpt>
      <trkpt lat="43.44992" lon="6.59329">
        <ele>199.3</ele>
        <time>2022-04-01T14:00:45Z</time>
      </trkpt>
      <trkpt lat="43.4499" lon="6.59317">
        <ele>199.7</ele>
        <time>2022-04-01T14:01:17Z</time>
      </trkpt>
      <trkpt lat="43.44981" lon="6.59319">
        <ele>198.2</ele>
        <time>2022-04-01T14:01:30Z</time>
      </trkpt>
      <trkpt lat="43.44972" lon="6.59323">
        <ele>196.9</ele>
        <time>2022-04-01T14:01:46Z</time>
      </trkpt>
      <trkpt lat="43.44963" lon="6.59321">
        <ele>196.4</ele>
        <time>2022-04-01T14:01:59Z</time>
      </trkpt>
      <trkpt lat="43.44957" lon="6.59311">
        <ele>194.5</ele>
        <time>2022-04-01T14:02:11Z</time>
      </trkpt>
      <trkpt lat="43.44951" lon="6.59302">
        <ele>194.2</ele>
        <time>2022-04-01T14:02:36Z</time>
      </trkpt>
      <trkpt lat="43.44949" lon="6.5929">
        <ele>192.6</ele>
        <time>2022-04-01T14:05:19Z</time>
      </trkpt>
      <trkpt lat="43.44952" lon="6.59277">
        <ele>193.4</ele>
        <time>2022-04-01T14:05:31Z</time>
      </trkpt>
      <trkpt lat="43.44952" lon="6.59264">
        <ele>195.7</ele>
        <time>2022-04-01T14:05:43Z</time>
      </trkpt>
      <trkpt lat="43.44956" lon="6.59252">
        <ele>196.4</ele>
        <time>2022-04-01T14:05:54Z</time>
      </trkpt>
      <trkpt lat="43.4496" lon="6.5924">
        <ele>196.2</ele>
        <time>2022-04-01T14:06:08Z</time>
      </trkpt>
      <trkpt lat="43.4496" lon="6.59228">
        <ele>197.7</ele>
        <time>2022-04-01T14:06:20Z</time>
      </trkpt>
      <trkpt lat="43.44952" lon="6.59219">
        <ele>199</ele>
        <time>2022-04-01T14:06:45Z</time>
      </trkpt>
      <trkpt lat="43.4496" lon="6.59223">
        <ele>200</ele>
        <time>2022-04-01T14:08:39Z</time>
      </trkpt>
      <trkpt lat="43.44958" lon="6.59236">
        <ele>198.9</ele>
        <time>2022-04-01T14:09:15Z</time>
      </trkpt>
      <trkpt lat="43.44954" lon="6.59248">
        <ele>197.9</ele>
        <time>2022-04-01T14:09:28Z</time>
      </trkpt>
      <trkpt lat="43.44951" lon="6.5926">
        <ele>197.6</ele>
        <time>2022-04-01T14:09:38Z</time>
      </trkpt>
      <trkpt lat="43.44951" lon="6.59273">
        <ele>196.6</ele>
        <time>2022-04-01T14:09:52Z</time>
      </trkpt>
      <trkpt lat="43.44947" lon="6.59284">
        <ele>193</ele>
        <time>2022-04-01T14:10:08Z</time>
      </trkpt>
      <trkpt lat="43.44942" lon="6.59295">
        <ele>192.8</ele>
        <time>2022-04-01T14:10:20Z</time>
      </trkpt>
      <trkpt lat="43.44934" lon="6.59302">
        <ele>190.4</ele>
        <time>2022-04-01T14:10:35Z</time>
      </trkpt>
      <trkpt lat="43.44925" lon="6.59303">
        <ele>188.3</ele>
        <time>2022-04-01T14:10:50Z</time>
      </trkpt>
      <trkpt lat="43.44916" lon="6.59301">
        <ele>187.6</ele>
        <time>2022-04-01T14:11:03Z</time>
      </trkpt>
      <trkpt lat="43.44911" lon="6.59313">
        <ele>187.4</ele>
        <time>2022-04-01T14:11:15Z</time>
      </trkpt>
      <trkpt lat="43.44906" lon="6.59324">
        <ele>186.4</ele>
        <time>2022-04-01T14:11:28Z</time>
      </trkpt>
      <trkpt lat="43.449" lon="6.59333">
        <ele>185.1</ele>
        <time>2022-04-01T14:11:40Z</time>
      </trkpt>
      <trkpt lat="43.44892" lon="6.5934">
        <ele>185.2</ele>
        <time>2022-04-01T14:11:52Z</time>
      </trkpt>
      <trkpt lat="43.44884" lon="6.59348">
        <ele>186</ele>
        <time>2022-04-01T14:12:03Z</time>
      </trkpt>
      <trkpt lat="43.44879" lon="6.59358">
        <ele>186.5</ele>
        <time>2022-04-01T14:12:14Z</time>
      </trkpt>
      <trkpt lat="43.44872" lon="6.59367">
        <ele>187</ele>
        <time>2022-04-01T14:12:26Z</time>
      </trkpt>
      <trkpt lat="43.44865" lon="6.59376">
        <ele>189</ele>
        <time>2022-04-01T14:12:37Z</time>
      </trkpt>
      <trkpt lat="43.44856" lon="6.59382">
        <ele>189.7</ele>
        <time>2022-04-01T14:12:49Z</time>
      </trkpt>
      <trkpt lat="43.44846" lon="6.59384">
        <ele>189.5</ele>
        <time>2022-04-01T14:13:00Z</time>
      </trkpt>
      <trkpt lat="43.44839" lon="6.59391">
        <ele>190.5</ele>
        <time>2022-04-01T14:13:11Z</time>
      </trkpt>
      <trkpt lat="43.44832" lon="6.59401">
        <ele>190.7</ele>
        <time>2022-04-01T14:13:20Z</time>
      </trkpt>
      <trkpt lat="43.44824" lon="6.59409">
        <ele>189.6</ele>
        <time>2022-04-01T14:13:30Z</time>
      </trkpt>
      <trkpt lat="43.44817" lon="6.59416">
        <ele>189.2</ele>
        <time>2022-04-01T14:13:40Z</time>
      </trkpt>
      <trkpt lat="43.44808" lon="6.59419">
        <ele>191.6</ele>
        <time>2022-04-01T14:15:17Z</time>
      </trkpt>
      <trkpt lat="43.44801" lon="6.5941">
        <ele>190.1</ele>
        <time>2022-04-01T14:15:28Z</time>
      </trkpt>
      <trkpt lat="43.44796" lon="6.59399">
        <ele>188.6</ele>
        <time>2022-04-01T14:15:40Z</time>
      </trkpt>
      <trkpt lat="43.4479" lon="6.59389">
        <ele>187.9</ele>
        <time>2022-04-01T14:15:50Z</time>
      </trkpt>
      <trkpt lat="43.44789" lon="6.59376">
        <ele>187</ele>
        <time>2022-04-01T14:16:07Z</time>
      </trkpt>
      <trkpt lat="43.44789" lon="6.59363">
        <ele>185.5</ele>
        <time>2022-04-01T14:16:20Z</time>
      </trkpt>
      <trkpt lat="43.44793" lon="6.59351">
        <ele>185.1</ele>
        <time>2022-04-01T14:16:30Z</time>
      </trkpt>
      <trkpt lat="43.44798" lon="6.5934">
        <ele>183.4</ele>
        <time>2022-04-01T14:16:45Z</time>
      </trkpt>
      <trkpt lat="43.44802" lon="6.59328">
        <ele>182.9</ele>
        <time>2022-04-01T14:16:59Z</time>
      </trkpt>
      <trkpt lat="43.44805" lon="6.59316">
        <ele>181.3</ele>
        <time>2022-04-01T14:17:21Z</time>
      </trkpt>
      <trkpt lat="43.4481" lon="6.59305">
        <ele>179.8</ele>
        <time>2022-04-01T14:17:36Z</time>
      </trkpt>
      <trkpt lat="43.44816" lon="6.59295">
        <ele>179</ele>
        <time>2022-04-01T14:17:50Z</time>
      </trkpt>
      <trkpt lat="43.4482" lon="6.59283">
        <ele>178.4</ele>
        <time>2022-04-01T14:18:06Z</time>
      </trkpt>
      <trkpt lat="43.44826" lon="6.59272">
        <ele>178.4</ele>
        <time>2022-04-01T14:18:18Z</time>
      </trkpt>
      <trkpt lat="43.44831" lon="6.59262">
        <ele>177.4</ele>
        <time>2022-04-01T14:18:27Z</time>
      </trkpt>
      <trkpt lat="43.44838" lon="6.59253">
        <ele>177</ele>
        <time>2022-04-01T14:18:39Z</time>
      </trkpt>
      <trkpt lat="43.44842" lon="6.59241">
        <ele>176.1</ele>
        <time>2022-04-01T14:18:52Z</time>
      </trkpt>
      <trkpt lat="43.44844" lon="6.59228">
        <ele>175.4</ele>
        <time>2022-04-01T14:19:03Z</time>
      </trkpt>
      <trkpt lat="43.44848" lon="6.59217">
        <ele>175.4</ele>
        <time>2022-04-01T14:19:13Z</time>
      </trkpt>
      <trkpt lat="43.44854" lon="6.59206">
        <ele>175.3</ele>
        <time>2022-04-01T14:19:22Z</time>
      </trkpt>
      <trkpt lat="43.44859" lon="6.59195">
        <ele>174.4</ele>
        <time>2022-04-01T14:19:30Z</time>
      </trkpt>
      <trkpt lat="43.44862" lon="6.59184">
        <ele>174.2</ele>
        <time>2022-04-01T14:19:39Z</time>
      </trkpt>
      <trkpt lat="43.44867" lon="6.59172">
        <ele>173.9</ele>
        <time>2022-04-01T14:19:49Z</time>
      </trkpt>
      <trkpt lat="43.44868" lon="6.59159">
        <ele>174</ele>
        <time>2022-04-01T14:19:58Z</time>
      </trkpt>
      <trkpt lat="43.44871" lon="6.59148">
        <ele>173.1</ele>
        <time>2022-04-01T14:20:08Z</time>
      </trkpt>
      <trkpt lat="43.44872" lon="6.59135">
        <ele>173.9</ele>
        <time>2022-04-01T14:20:34Z</time>
      </trkpt>
      <trkpt lat="43.44876" lon="6.59123">
        <ele>172</ele>
        <time>2022-04-01T14:20:51Z</time>
      </trkpt>
      <trkpt lat="43.44881" lon="6.59113">
        <ele>170.5</ele>
        <time>2022-04-01T14:21:02Z</time>
      </trkpt>
      <trkpt lat="43.44886" lon="6.59102">
        <ele>170.1</ele>
        <time>2022-04-01T14:21:17Z</time>
      </trkpt>
      <trkpt lat="43.44889" lon="6.59089">
        <ele>169.3</ele>
        <time>2022-04-01T14:21:28Z</time>
      </trkpt>
      <trkpt lat="43.44893" lon="6.59078">
        <ele>167.6</ele>
        <time>2022-04-01T14:21:38Z</time>
      </trkpt>
      <trkpt lat="43.44896" lon="6.59065">
        <ele>166.7</ele>
        <time>2022-04-01T14:21:47Z</time>
      </trkpt>
      <trkpt lat="43.44899" lon="6.59054">
        <ele>166.9</ele>
        <time>2022-04-01T14:21:57Z</time>
      </trkpt>
      <trkpt lat="43.44904" lon="6.59043">
        <ele>165.6</ele>
        <time>2022-04-01T14:22:07Z</time>
      </trkpt>
      <trkpt lat="43.44907" lon="6.59031">
        <ele>165.3</ele>
        <time>2022-04-01T14:22:18Z</time>
      </trkpt>
      <trkpt lat="43.44911" lon="6.5902">
        <ele>164.7</ele>
        <time>2022-04-01T14:22:31Z</time>
      </trkpt>
      <trkpt lat="43.44914" lon="6.59007">
        <ele>163.2</ele>
        <time>2022-04-01T14:22:43Z</time>
      </trkpt>
      <trkpt lat="43.44917" lon="6.58995">
        <ele>162.3</ele>
        <time>2022-04-01T14:22:56Z</time>
      </trkpt>
      <trkpt lat="43.4492" lon="6.58982">
        <ele>161.9</ele>
        <time>2022-04-01T14:23:07Z</time>
      </trkpt>
      <trkpt lat="43.44923" lon="6.58969">
        <ele>162</ele>
        <time>2022-04-01T14:23:17Z</time>
      </trkpt>
      <trkpt lat="43.44928" lon="6.58957">
        <ele>161.4</ele>
        <time>2022-04-01T14:23:27Z</time>
      </trkpt>
      <trkpt lat="43.44932" lon="6.58946">
        <ele>160.3</ele>
        <time>2022-04-01T14:23:37Z</time>
      </trkpt>
      <trkpt lat="43.44935" lon="6.58934">
        <ele>160.4</ele>
        <time>2022-04-01T14:23:48Z</time>
      </trkpt>
      <trkpt lat="43.44937" lon="6.58921">
        <ele>160.9</ele>
        <time>2022-04-01T14:24:01Z</time>
      </trkpt>
      <trkpt lat="43.44939" lon="6.58909">
        <ele>160.6</ele>
        <time>2022-04-01T14:24:14Z</time>
      </trkpt>
      <trkpt lat="43.44947" lon="6.58904">
        <ele>160.1</ele>
        <time>2022-04-01T14:24:32Z</time>
      </trkpt>
      <trkpt lat="43.44957" lon="6.589">
        <ele>160.7</ele>
        <time>2022-04-01T14:24:44Z</time>
      </trkpt>
      <trkpt lat="43.4496" lon="6.58889">
        <ele>161.4</ele>
        <time>2022-04-01T14:25:42Z</time>
      </trkpt>
      <trkpt lat="43.44966" lon="6.58879">
        <ele>162.2</ele>
        <time>2022-04-01T14:27:55Z</time>
      </trkpt>
      <trkpt lat="43.44975" lon="6.58872">
        <ele>162.9</ele>
        <time>2022-04-01T14:28:09Z</time>
      </trkpt>
      <trkpt lat="43.44982" lon="6.58865">
        <ele>163.5</ele>
        <time>2022-04-01T14:28:23Z</time>
      </trkpt>
      <trkpt lat="43.44989" lon="6.58856">
        <ele>164.2</ele>
        <time>2022-04-01T14:28:37Z</time>
      </trkpt>
      <trkpt lat="43.44995" lon="6.58847">
        <ele>165.8</ele>
        <time>2022-04-01T14:28:50Z</time>
      </trkpt>
      <trkpt lat="43.45003" lon="6.58839">
        <ele>168</ele>
        <time>2022-04-01T14:29:04Z</time>
      </trkpt>
      <trkpt lat="43.4501" lon="6.58831">
        <ele>168.1</ele>
        <time>2022-04-01T14:29:17Z</time>
      </trkpt>
      <trkpt lat="43.45018" lon="6.58825">
        <ele>169.2</ele>
        <time>2022-04-01T14:29:29Z</time>
      </trkpt>
      <trkpt lat="43.45027" lon="6.5882">
        <ele>169.9</ele>
        <time>2022-04-01T14:29:39Z</time>
      </trkpt>
      <trkpt lat="43.45034" lon="6.58812">
        <ele>171.2</ele>
        <time>2022-04-01T14:29:50Z</time>
      </trkpt>
      <trkpt lat="43.45041" lon="6.58804">
        <ele>169.6</ele>
        <time>2022-04-01T14:30:02Z</time>
      </trkpt>
      <trkpt lat="43.45049" lon="6.58795">
        <ele>170.3</ele>
        <time>2022-04-01T14:30:15Z</time>
      </trkpt>
      <trkpt lat="43.45056" lon="6.58788">
        <ele>170.3</ele>
        <time>2022-04-01T14:30:28Z</time>
      </trkpt>
      <trkpt lat="43.45062" lon="6.58778">
        <ele>171.1</ele>
        <time>2022-04-01T14:30:42Z</time>
      </trkpt>
      <trkpt lat="43.4507" lon="6.58769">
        <ele>171.6</ele>
        <time>2022-04-01T14:30:55Z</time>
      </trkpt>
      <trkpt lat="43.45077" lon="6.5876">
        <ele>172.3</ele>
        <time>2022-04-01T14:31:08Z</time>
      </trkpt>
      <trkpt lat="43.45083" lon="6.58751">
        <ele>172.8</ele>
        <time>2022-04-01T14:31:19Z</time>
      </trkpt>
      <trkpt lat="43.45089" lon="6.58742">
        <ele>173.2</ele>
        <time>2022-04-01T14:31:30Z</time>
      </trkpt>
      <trkpt lat="43.45095" lon="6.58732">
        <ele>174</ele>
        <time>2022-04-01T14:31:41Z</time>
      </trkpt>
      <trkpt lat="43.45101" lon="6.58722">
        <ele>173.5</ele>
        <time>2022-04-01T14:31:50Z</time>
      </trkpt>
      <trkpt lat="43.45108" lon="6.58713">
        <ele>173.8</ele>
        <time>2022-04-01T14:32:00Z</time>
      </trkpt>
      <trkpt lat="43.45114" lon="6.58703">
        <ele>173.7</ele>
        <time>2022-04-01T14:32:10Z</time>
      </trkpt>
      <trkpt lat="43.4512" lon="6.58695">
        <ele>173.3</ele>
        <time>2022-04-01T14:32:19Z</time>
      </trkpt>
      <trkpt lat="43.45127" lon="6.58685">
        <ele>173.1</ele>
        <time>2022-04-01T14:32:28Z</time>
      </trkpt>
      <trkpt lat="43.45133" lon="6.58675">
        <ele>172.7</ele>
        <time>2022-04-01T14:32:37Z</time>
      </trkpt>
      <trkpt lat="43.45137" lon="6.58664">
        <ele>171.6</ele>
        <time>2022-04-01T14:32:46Z</time>
      </trkpt>
      <trkpt lat="43.45142" lon="6.58653">
        <ele>170.5</ele>
        <time>2022-04-01T14:32:55Z</time>
      </trkpt>
      <trkpt lat="43.45147" lon="6.58642">
        <ele>169.4</ele>
        <time>2022-04-01T14:33:08Z</time>
      </trkpt>
      <trkpt lat="43.45151" lon="6.5863">
        <ele>169.3</ele>
        <time>2022-04-01T14:33:19Z</time>
      </trkpt>
      <trkpt lat="43.45153" lon="6.58617">
        <ele>169.1</ele>
        <time>2022-04-01T14:33:29Z</time>
      </trkpt>
      <trkpt lat="43.45155" lon="6.58604">
        <ele>169.4</ele>
        <time>2022-04-01T14:33:38Z</time>
      </trkpt>
      <trkpt lat="43.45155" lon="6.58591">
        <ele>169.6</ele>
        <time>2022-04-01T14:33:48Z</time>
      </trkpt>
      <trkpt lat="43.45154" lon="6.58579">
        <ele>169.1</ele>
        <time>2022-04-01T14:33:58Z</time>
      </trkpt>
      <trkpt lat="43.45154" lon="6.58566">
        <ele>168.1</ele>
        <time>2022-04-01T14:34:08Z</time>
      </trkpt>
      <trkpt lat="43.45156" lon="6.58552">
        <ele>167.3</ele>
        <time>2022-04-01T14:34:17Z</time>
      </trkpt>
      <trkpt lat="43.45158" lon="6.58539">
        <ele>167.4</ele>
        <time>2022-04-01T14:34:26Z</time>
      </trkpt>
      <trkpt lat="43.4516" lon="6.58527">
        <ele>167.2</ele>
        <time>2022-04-01T14:34:36Z</time>
      </trkpt>
      <trkpt lat="43.45165" lon="6.58514">
        <ele>166.9</ele>
        <time>2022-04-01T14:34:46Z</time>
      </trkpt>
      <trkpt lat="43.45168" lon="6.58502">
        <ele>167.2</ele>
        <time>2022-04-01T14:34:55Z</time>
      </trkpt>
      <trkpt lat="43.45172" lon="6.58491">
        <ele>167</ele>
        <time>2022-04-01T14:35:04Z</time>
      </trkpt>
      <trkpt lat="43.45179" lon="6.58483">
        <ele>165.6</ele>
        <time>2022-04-01T14:35:13Z</time>
      </trkpt>
      <trkpt lat="43.45187" lon="6.58477">
        <ele>165.9</ele>
        <time>2022-04-01T14:35:23Z</time>
      </trkpt>
      <trkpt lat="43.45196" lon="6.58472">
        <ele>164.2</ele>
        <time>2022-04-01T14:35:34Z</time>
      </trkpt>
      <trkpt lat="43.45205" lon="6.58468">
        <ele>162.9</ele>
        <time>2022-04-01T14:35:47Z</time>
      </trkpt>
      <trkpt lat="43.45211" lon="6.58458">
        <ele>162.6</ele>
        <time>2022-04-01T14:35:57Z</time>
      </trkpt>
      <trkpt lat="43.45217" lon="6.58448">
        <ele>162.8</ele>
        <time>2022-04-01T14:36:07Z</time>
      </trkpt>
      <trkpt lat="43.45222" lon="6.58437">
        <ele>162.7</ele>
        <time>2022-04-01T14:36:15Z</time>
      </trkpt>
      <trkpt lat="43.45228" lon="6.58426">
        <ele>162.5</ele>
        <time>2022-04-01T14:36:24Z</time>
      </trkpt>
      <trkpt lat="43.45236" lon="6.58417">
        <ele>162.4</ele>
        <time>2022-04-01T14:36:33Z</time>
      </trkpt>
      <trkpt lat="43.45241" lon="6.58407">
        <ele>162.5</ele>
        <time>2022-04-01T14:36:42Z</time>
      </trkpt>
      <trkpt lat="43.45245" lon="6.58395">
        <ele>162.3</ele>
        <time>2022-04-01T14:36:54Z</time>
      </trkpt>
      <trkpt lat="43.45251" lon="6.58385">
        <ele>162.6</ele>
        <time>2022-04-01T14:37:03Z</time>
      </trkpt>
      <trkpt lat="43.45255" lon="6.58373">
        <ele>163.1</ele>
        <time>2022-04-01T14:37:13Z</time>
      </trkpt>
      <trkpt lat="43.45258" lon="6.58361">
        <ele>163.5</ele>
        <time>2022-04-01T14:37:24Z</time>
      </trkpt>
      <trkpt lat="43.45258" lon="6.58347">
        <ele>164.1</ele>
        <time>2022-04-01T14:37:35Z</time>
      </trkpt>
      <trkpt lat="43.45256" lon="6.58335">
        <ele>163.1</ele>
        <time>2022-04-01T14:37:45Z</time>
      </trkpt>
      <trkpt lat="43.45254" lon="6.58322">
        <ele>163.3</ele>
        <time>2022-04-01T14:37:54Z</time>
      </trkpt>
      <trkpt lat="43.45253" lon="6.58309">
        <ele>163.4</ele>
        <time>2022-04-01T14:38:04Z</time>
      </trkpt>
      <trkpt lat="43.45251" lon="6.58296">
        <ele>163.9</ele>
        <time>2022-04-01T14:38:12Z</time>
      </trkpt>
      <trkpt lat="43.45249" lon="6.58283">
        <ele>164.6</ele>
        <time>2022-04-01T14:38:20Z</time>
      </trkpt>
      <trkpt lat="43.45248" lon="6.5827">
        <ele>165.1</ele>
        <time>2022-04-01T14:38:30Z</time>
      </trkpt>
      <trkpt lat="43.4525" lon="6.58258">
        <ele>164.9</ele>
        <time>2022-04-01T14:38:39Z</time>
      </trkpt>
      <trkpt lat="43.45251" lon="6.58246">
        <ele>166.3</ele>
        <time>2022-04-01T14:38:49Z</time>
      </trkpt>
      <trkpt lat="43.45253" lon="6.58233">
        <ele>168</ele>
        <time>2022-04-01T14:39:00Z</time>
      </trkpt>
      <trkpt lat="43.45254" lon="6.58221">
        <ele>168</ele>
        <time>2022-04-01T14:39:09Z</time>
      </trkpt>
      <trkpt lat="43.45255" lon="6.58208">
        <ele>168</ele>
        <time>2022-04-01T14:39:18Z</time>
      </trkpt>
      <trkpt lat="43.45255" lon="6.58196">
        <ele>168.1</ele>
        <time>2022-04-01T14:39:28Z</time>
      </trkpt>
      <trkpt lat="43.45255" lon="6.58183">
        <ele>169.2</ele>
        <time>2022-04-01T14:39:38Z</time>
      </trkpt>
      <trkpt lat="43.45255" lon="6.58171">
        <ele>169.5</ele>
        <time>2022-04-01T14:39:48Z</time>
      </trkpt>
      <trkpt lat="43.45255" lon="6.58158">
        <ele>170.3</ele>
        <time>2022-04-01T14:39:58Z</time>
      </trkpt>
      <trkpt lat="43.45254" lon="6.58145">
        <ele>170.3</ele>
        <time>2022-04-01T14:40:09Z</time>
      </trkpt>
      <trkpt lat="43.45245" lon="6.58139">
        <ele>170.3</ele>
        <time>2022-04-01T14:40:29Z</time>
      </trkpt>
      <trkpt lat="43.45236" lon="6.58133">
        <ele>167.7</ele>
        <time>2022-04-01T14:40:38Z</time>
      </trkpt>
      <trkpt lat="43.45226" lon="6.58135">
        <ele>165.1</ele>
        <time>2022-04-01T14:40:47Z</time>
      </trkpt>
      <trkpt lat="43.45215" lon="6.58133">
        <ele>162.8</ele>
        <time>2022-04-01T14:40:55Z</time>
      </trkpt>
      <trkpt lat="43.45206" lon="6.58128">
        <ele>160.6</ele>
        <time>2022-04-01T14:41:02Z</time>
      </trkpt>
      <trkpt lat="43.45197" lon="6.58127">
        <ele>159.1</ele>
        <time>2022-04-01T14:41:09Z</time>
      </trkpt>
      <trkpt lat="43.45187" lon="6.58125">
        <ele>155.4</ele>
        <time>2022-04-01T14:42:02Z</time>
      </trkpt>
      <trkpt lat="43.45184" lon="6.58114">
        <ele>155</ele>
        <time>2022-04-01T14:42:34Z</time>
      </trkpt>
      <trkpt lat="43.45175" lon="6.58114">
        <ele>154.8</ele>
        <time>2022-04-01T14:48:21Z</time>
      </trkpt>
      <trkpt lat="43.45168" lon="6.58106">
        <ele>153.4</ele>
        <time>2022-04-01T14:50:16Z</time>
      </trkpt>
      <trkpt lat="43.45161" lon="6.58097">
        <ele>151.8</ele>
        <time>2022-04-01T14:50:28Z</time>
      </trkpt>
      <trkpt lat="43.45154" lon="6.58089">
        <ele>150.3</ele>
        <time>2022-04-01T14:50:38Z</time>
      </trkpt>
      <trkpt lat="43.45146" lon="6.58082">
        <ele>148.3</ele>
        <time>2022-04-01T14:50:47Z</time>
      </trkpt>
      <trkpt lat="43.45138" lon="6.58075">
        <ele>146.8</ele>
        <time>2022-04-01T14:50:58Z</time>
      </trkpt>
      <trkpt lat="43.4513" lon="6.5807">
        <ele>144.6</ele>
        <time>2022-04-01T14:52:05Z</time>
      </trkpt>
      <trkpt lat="43.45121" lon="6.58067">
        <ele>143.9</ele>
        <time>2022-04-01T14:52:44Z</time>
      </trkpt>
      <trkpt lat="43.45112" lon="6.58062">
        <ele>142.3</ele>
        <time>2022-04-01T14:52:54Z</time>
      </trkpt>
      <trkpt lat="43.45106" lon="6.58052">
        <ele>141.3</ele>
        <time>2022-04-01T14:53:06Z</time>
      </trkpt>
      <trkpt lat="43.45104" lon="6.58039">
        <ele>140.2</ele>
        <time>2022-04-01T14:53:17Z</time>
      </trkpt>
      <trkpt lat="43.45099" lon="6.58028">
        <ele>138.7</ele>
        <time>2022-04-01T14:53:32Z</time>
      </trkpt>
      <trkpt lat="43.4509" lon="6.58028">
        <ele>137.6</ele>
        <time>2022-04-01T14:53:42Z</time>
      </trkpt>
      <trkpt lat="43.45081" lon="6.5803">
        <ele>136.5</ele>
        <time>2022-04-01T14:53:52Z</time>
      </trkpt>
      <trkpt lat="43.45072" lon="6.58025">
        <ele>133.8</ele>
        <time>2022-04-01T14:54:07Z</time>
      </trkpt>
      <trkpt lat="43.45063" lon="6.5802">
        <ele>133.7</ele>
        <time>2022-04-01T14:54:15Z</time>
      </trkpt>
      <trkpt lat="43.45054" lon="6.58016">
        <ele>133.9</ele>
        <time>2022-04-01T14:54:23Z</time>
      </trkpt>
      <trkpt lat="43.45045" lon="6.58011">
        <ele>134</ele>
        <time>2022-04-01T14:54:34Z</time>
      </trkpt>
      <trkpt lat="43.45035" lon="6.58008">
        <ele>134</ele>
        <time>2022-04-01T14:54:43Z</time>
      </trkpt>
      <trkpt lat="43.45025" lon="6.58006">
        <ele>135.6</ele>
        <time>2022-04-01T14:54:52Z</time>
      </trkpt>
      <trkpt lat="43.45019" lon="6.58016">
        <ele>137.1</ele>
        <time>2022-04-01T14:55:02Z</time>
      </trkpt>
      <trkpt lat="43.4501" lon="6.58012">
        <ele>138.9</ele>
        <time>2022-04-01T14:55:48Z</time>
      </trkpt>
      <trkpt lat="43.45003" lon="6.58005">
        <ele>138.4</ele>
        <time>2022-04-01T14:55:56Z</time>
      </trkpt>
      <trkpt lat="43.44996" lon="6.57994">
        <ele>137.6</ele>
        <time>2022-04-01T14:56:03Z</time>
      </trkpt>
      <trkpt lat="43.44993" lon="6.57983">
        <ele>138.2</ele>
        <time>2022-04-01T14:56:11Z</time>
      </trkpt>
      <trkpt lat="43.44989" lon="6.57972">
        <ele>138.1</ele>
        <time>2022-04-01T14:56:19Z</time>
      </trkpt>
      <trkpt lat="43.44983" lon="6.57961">
        <ele>137.9</ele>
        <time>2022-04-01T14:56:31Z</time>
      </trkpt>
      <trkpt lat="43.44974" lon="6.57959">
        <ele>139</ele>
        <time>2022-04-01T14:56:41Z</time>
      </trkpt>
      <trkpt lat="43.44964" lon="6.57963">
        <ele>139.2</ele>
        <time>2022-04-01T14:56:48Z</time>
      </trkpt>
      <trkpt lat="43.44957" lon="6.57969">
        <ele>139.3</ele>
        <time>2022-04-01T14:56:56Z</time>
      </trkpt>
      <trkpt lat="43.44949" lon="6.57977">
        <ele>139.4</ele>
        <time>2022-04-01T14:57:05Z</time>
      </trkpt>
      <trkpt lat="43.44941" lon="6.57985">
        <ele>140.2</ele>
        <time>2022-04-01T14:57:14Z</time>
      </trkpt>
      <trkpt lat="43.44932" lon="6.57987">
        <ele>140.9</ele>
        <time>2022-04-01T14:57:24Z</time>
      </trkpt>
      <trkpt lat="43.44925" lon="6.57993">
        <ele>142.4</ele>
        <time>2022-04-01T15:02:08Z</time>
      </trkpt>
    </trkseg>
  </trk>
</gpx>